Time;durP1;ratioP1;P1;durP2;ratioP2;P2;SDS_P1;SDS_P2;PMS_P1;PMS_P2;Temp;Humidity;BMP_temperature;BMP_pressure;BME280_temperature;BME280_humidity;BME280_pressure;Samples;Min_cycle;Max_cycle;Signal;HPM_P1;HPM_P2
2023/01/10 00:01:36;;;;;;;0.87;0.87;;;;;;;5.15;100.00;97832.16;5093796;28;20298;-91
2023/01/10 00:04:03;;;;;;;0.60;0.60;;;;;;;5.20;100.00;97844.06;5093902;28;20264;-91
2023/01/10 00:06:29;;;;;;;1.73;1.10;;;;;;;5.23;100.00;97838.69;5093929;28;20212;-91
2023/01/10 00:08:57;;;;;;;1.70;0.80;;;;;;;5.25;100.00;97836.81;5093084;28;20230;-91
2023/01/10 00:14:10;;;;;;;0.90;0.90;;;;;;;5.22;100.00;97841.38;5096257;28;20213;-91
2023/01/10 00:16:38;;;;;;;1.30;1.10;;;;;;;5.18;100.00;97845.94;5095102;28;20566;-91
2023/01/10 00:19:04;;;;;;;1.43;1.10;;;;;;;5.16;100.00;97852.19;5092689;28;20299;-91
2023/01/10 00:21:31;;;;;;;2.37;0.90;;;;;;;5.17;100.00;97846.88;5093358;28;20206;-91
2023/01/10 00:24:00;;;;;;;1.53;1.17;;;;;;;5.21;100.00;97863.25;5093500;28;20688;-91
2023/01/10 00:26:26;;;;;;;1.40;1.30;;;;;;;5.20;100.00;97859.78;5092978;28;20209;-91
2023/01/10 00:28:53;;;;;;;2.07;1.50;;;;;;;5.22;100.00;97868.44;5092403;28;20239;-91
2023/01/10 00:31:19;;;;;;;3.13;1.70;;;;;;;5.21;100.00;97866.75;5093098;28;20202;-91
2023/01/10 00:33:47;;;;;;;3.50;2.10;;;;;;;5.19;100.00;97868.56;5093166;28;20197;-91
2023/01/10 00:36:13;;;;;;;4.13;1.90;;;;;;;5.22;100.00;97884.16;5092958;28;20610;-91
2023/01/10 00:38:40;;;;;;;2.00;1.80;;;;;;;5.24;100.00;97871.81;5092610;28;20226;-91
2023/01/10 00:43:55;;;;;;;2.73;1.83;;;;;;;5.23;100.00;97882.34;5092291;28;20219;-91
2023/01/10 00:43:56;;;;;;;2.57;2.00;;;;;;;5.20;100.00;97885.97;5092687;28;20293;-91
2023/01/10 00:46:23;;;;;;;2.67;1.70;;;;;;;5.25;100.00;97897.06;5092506;28;20216;-91
2023/01/10 00:48:51;;;;;;;3.70;1.57;;;;;;;5.31;100.00;97899.38;5091954;28;20230;-91
2023/01/10 00:51:17;;;;;;;2.27;1.80;;;;;;;5.34;100.00;97909.72;5092615;28;20221;-90
2023/01/10 00:53:44;;;;;;;1.93;1.70;;;;;;;5.31;100.00;97907.25;5092268;28;20268;-91
2023/01/10 00:56:10;;;;;;;2.17;1.80;;;;;;;5.28;100.00;97909.16;5092649;28;20217;-91
2023/01/10 00:58:37;;;;;;;1.70;1.60;;;;;;;5.29;100.00;97916.09;5092522;28;20223;-91
2023/01/10 01:01:03;;;;;;;1.93;1.80;;;;;;;5.25;100.00;97920.66;5092019;28;20214;-91
2023/01/10 01:03:30;;;;;;;1.90;1.60;;;;;;;5.27;100.00;97933.69;5092480;28;20212;-85
2023/01/10 01:05:57;;;;;;;2.00;1.80;;;;;;;5.22;100.00;97933.94;5092264;28;20212;-89
2023/01/10 01:08:24;;;;;;;2.07;1.90;;;;;;;5.21;100.00;97942.72;5091648;28;20707;-91
2023/01/10 01:10:50;;;;;;;2.80;1.93;;;;;;;5.22;100.00;97931.31;5091389;28;20217;-88
2023/01/10 01:13:20;;;;;;;2.23;1.97;;;;;;;5.25;100.00;97948.66;5092100;28;20201;-88
2023/01/10 01:15:47;;;;;;;2.23;2.03;;;;;;;5.20;100.00;97948.84;5091815;28;20277;-88
2023/01/10 01:18:16;;;;;;;2.67;2.10;;;;;;;5.17;100.00;97949.03;5091602;28;20245;-88
2023/01/10 01:20:44;;;;;;;4.13;2.43;;;;;;;5.09;100.00;97951.19;5091032;28;20561;-88
2023/01/10 01:23:12;;;;;;;2.23;1.80;;;;;;;5.04;100.00;97963.66;5091591;28;20263;-88
2023/01/10 01:25:39;;;;;;;3.27;2.00;;;;;;;5.01;100.00;97962.97;5091666;28;20196;-88
2023/01/10 01:28:05;;;;;;;3.87;1.90;;;;;;;5.00;100.00;97964.72;5091590;28;20231;-88
2023/01/10 01:30:32;;;;;;;2.33;1.90;;;;;;;4.98;100.00;97978.81;5090921;28;20236;-88
2023/01/10 01:32:58;;;;;;;3.53;2.17;;;;;;;4.95;100.00;97979.81;5091556;28;20204;-88
2023/01/10 01:35:25;;;;;;;1.90;1.70;;;;;;;4.95;100.00;97990.31;5091554;28;20237;-89
2023/01/10 01:37:51;;;;;;;1.80;1.60;;;;;;;4.95;100.00;97992.91;5091433;28;20225;-89
2023/01/10 01:40:22;;;;;;;2.47;1.73;;;;;;;4.95;100.00;97994.72;5090888;28;20211;-88
2023/01/10 01:42:54;;;;;;;3.00;1.90;;;;;;;4.94;100.00;97999.09;5091622;28;20213;-88
2023/01/10 01:45:37;;;;;;;1.60;1.40;;;;;;;4.93;100.00;98012.25;5091792;28;20216;-88
2023/01/10 01:48:17;;;;;;;1.50;1.40;;;;;;;5.00;100.00;98014.50;5091195;28;20234;-88
2023/01/10 01:50:48;;;;;;;1.60;1.40;;;;;;;5.14;100.00;98022.50;5090735;28;20208;-87
2023/01/10 01:53:22;;;;;;;1.63;1.33;;;;;;;5.17;100.00;98029.38;5091436;28;20213;-88
2023/01/10 01:55:53;;;;;;;1.50;1.40;;;;;;;5.25;100.00;98037.72;5091517;28;20220;-88
2023/01/10 01:58:26;;;;;;;2.53;1.73;;;;;;;5.23;100.00;98039.56;5091145;28;20225;-88
2023/01/10 02:00:53;;;;;;;1.40;1.20;;;;;;;5.24;100.00;98049.97;5088549;28;20580;-88
2023/01/10 02:03:19;;;;;;;1.50;1.40;;;;;;;5.23;100.00;98052.66;5089996;28;20205;-88
2023/01/10 02:05:46;;;;;;;3.47;1.27;;;;;;;5.25;100.00;98045.59;5092119;28;20210;-89
2023/01/10 02:08:13;;;;;;;2.30;1.57;;;;;;;5.21;100.00;98050.13;5095648;28;20234;-89
2023/01/10 02:10:47;;;;;;;1.47;1.27;;;;;;;5.16;100.00;98054.75;5094743;28;20227;-89
2023/01/10 02:13:19;;;;;;;1.50;1.40;;;;;;;5.12;100.00;98066.28;5095633;28;20210;-88
2023/01/10 02:15:46;;;;;;;1.60;1.50;;;;;;;5.15;100.00;98071.38;5095729;28;20582;-88
2023/01/10 02:18:12;;;;;;;1.67;1.57;;;;;;;5.16;100.00;98080.94;5095167;28;20723;-88
2023/01/10 02:20:46;;;;;;;1.30;1.20;;;;;;;5.16;100.00;98098.41;5094720;28;20214;-88
2023/01/10 02:23:44;;;;;;;1.70;1.53;;;;;;;5.12;100.00;98102.97;5095363;28;20241;-88
2023/01/10 02:26:47;;;;;;;1.47;1.37;;;;;;;5.06;100.00;98103.25;5095090;28;20677;-88
2023/01/10 02:29:47;;;;;;;2.40;1.67;;;;;;;5.06;100.00;98118.97;5088792;28;20260;-87
2023/01/10 02:32:28;;;;;;;2.37;1.83;;;;;;;5.02;100.00;98122.63;5095305;28;20604;-88
2023/01/10 02:35:08;;;;;;;2.37;1.60;;;;;;;5.01;100.00;98117.50;5095301;28;20220;-88
2023/01/10 02:37:45;;;;;;;2.30;1.70;;;;;;;5.02;100.00;98132.28;5095075;28;20218;-88
2023/01/10 02:40:19;;;;;;;3.70;2.23;;;;;;;5.04;100.00;98136.53;5094174;28;20215;-88
2023/01/10 02:42:52;;;;;;;1.90;1.67;;;;;;;5.04;100.00;98133.06;5095005;28;20213;-88
2023/01/10 02:45:28;;;;;;;1.90;1.70;;;;;;;5.01;100.00;98141.91;5095307;28;20237;-88
2023/01/10 02:47:56;;;;;;;2.47;1.80;;;;;;;5.00;100.00;98136.75;5094670;28;20227;-89
2023/01/10 02:50:29;;;;;;;2.17;1.80;;;;;;;4.98;100.00;98147.31;5093916;28;20232;-89
2023/01/10 02:52:59;;;;;;;4.60;1.70;;;;;;;5.05;100.00;98146.09;5094863;28;20234;-88
2023/01/10 02:55:33;;;;;;;3.10;1.80;;;;;;;5.00;100.00;98150.69;5094757;28;20665;-88
2023/01/10 02:58:10;;;;;;;2.00;1.80;;;;;;;4.96;100.00;98162.22;5094676;28;20223;-89
2023/01/10 03:00:44;;;;;;;2.80;1.97;;;;;;;4.97;100.00;98161.31;5093838;28;20207;-89
2023/01/10 03:03:31;;;;;;;2.50;1.93;;;;;;;4.90;100.00;98154.63;5094489;28;20209;-89
2023/01/10 03:06:06;;;;;;;1.40;1.30;;;;;;;4.90;100.00;98165.13;5094924;28;20213;-89
2023/01/10 03:08:37;;;;;;;1.50;1.40;;;;;;;4.85;100.00;98161.88;5094500;28;20696;-89
2023/01/10 03:11:06;;;;;;;2.23;1.40;;;;;;;4.81;100.00;98175.16;5094058;28;20211;-89
2023/01/10 03:13:42;;;;;;;2.70;1.60;;;;;;;4.82;100.00;98189.97;5094171;28;20208;-87
2023/01/10 03:16:15;;;;;;;1.70;1.40;;;;;;;4.83;100.00;98192.50;5094669;28;20206;-87
2023/01/10 03:18:48;;;;;;;5.93;2.13;;;;;;;4.83;100.00;98192.50;5093938;28;20241;-89
2023/01/10 03:21:19;;;;;;;3.50;1.90;;;;;;;4.83;100.00;98205.59;5094107;28;20208;-87
2023/01/10 03:23:47;;;;;;;3.43;1.97;;;;;;;4.82;100.00;98203.91;5094353;28;20712;-87
2023/01/10 03:26:15;;;;;;;3.93;2.00;;;;;;;4.82;100.00;98224.03;5097528;28;20684;-89
2023/01/10 03:28:49;;;;;;;4.70;2.20;;;;;;;4.82;100.00;98232.69;5097089;28;20263;-88
2023/01/10 03:31:22;;;;;;;3.93;2.07;;;;;;;4.80;100.00;98236.31;5094005;28;20217;-87
2023/01/10 03:33:50;;;;;;;3.83;2.33;;;;;;;4.75;100.00;98225.19;5094104;28;20209;-87
2023/01/10 03:36:29;;;;;;;3.30;2.30;;;;;;;4.73;100.00;98240.13;5094002;28;20214;-87
2023/01/10 03:38:58;;;;;;;4.87;2.40;;;;;;;4.69;100.00;98238.53;5093248;28;20335;-89
2023/01/10 03:41:34;;;;;;;4.87;2.77;;;;;;;4.67;100.00;98246.50;5093662;28;20206;-87
2023/01/10 03:47:00;;;;;;;4.43;2.53;;;;;;;4.63;100.00;98255.38;5093719;28;20591;-87
2023/01/10 03:49:29;;;;;;;6.00;2.97;;;;;;;4.65;100.00;98256.16;5093333;28;20247;-88
2023/01/10 03:51:58;;;;;;;4.37;2.67;;;;;;;4.63;100.00;98265.84;5093725;28;20222;-88
2023/01/10 03:54:25;;;;;;;4.23;2.70;;;;;;;4.63;100.00;98268.47;5093436;28;20256;-88
2023/01/10 03:56:52;;;;;;;3.07;2.50;;;;;;;4.61;100.00;98261.59;5093587;28;20745;-88
2023/01/10 03:59:22;;;;;;;5.33;2.40;;;;;;;4.60;100.00;98273.84;5092625;28;20729;-88
2023/01/10 04:01:48;;;;;;;6.40;2.70;;;;;;;4.57;100.00;98280.97;5093632;28;20207;-88
2023/01/10 04:04:15;;;;;;;6.33;2.50;;;;;;;4.51;100.00;98282.09;5093483;28;20206;-90
2023/01/10 04:06:43;;;;;;;5.90;3.53;;;;;;;4.49;100.00;98281.31;5093265;28;20208;-88
2023/01/10 04:09:10;;;;;;;4.30;2.53;;;;;;;4.48;100.00;98300.56;5092390;28;20238;-87
2023/01/10 04:11:36;;;;;;;3.87;2.23;;;;;;;4.39;100.00;98298.31;5093130;28;20589;-89
2023/01/10 04:14:03;;;;;;;4.10;2.97;;;;;;;4.25;100.00;98305.88;5093030;28;20576;-89
2023/01/10 04:16:30;;;;;;;4.30;2.50;;;;;;;4.20;100.00;98313.06;5093345;28;20232;-89
2023/01/10 04:18:56;;;;;;;3.27;2.50;;;;;;;4.12;100.00;98315.16;5099905;22;20249;-80
2023/01/10 04:21:23;;;;;;;5.47;3.03;;;;;;;4.09;100.00;98315.25;5072884;28;20675;-80
2023/01/10 04:23:51;;;;;;;3.63;2.80;;;;;;;4.04;100.00;98327.66;5072946;28;20211;-81
2023/01/10 04:26:17;;;;;;;5.97;2.97;;;;;;;4.03;100.00;98325.97;5072845;28;20218;-80
2023/01/10 04:28:44;;;;;;;3.97;2.93;;;;;;;3.99;100.00;98324.41;5072068;28;20254;-78
2023/01/10 04:31:10;;;;;;;5.53;2.93;;;;;;;4.01;100.00;98333.03;5072526;28;20210;-81
2023/01/10 04:33:37;;;;;;;4.27;2.70;;;;;;;3.99;100.00;98341.84;5072687;28;20217;-82
2023/01/10 04:36:04;;;;;;;6.33;3.30;;;;;;;3.97;100.00;98341.91;5072627;28;20331;-82
2023/01/10 04:38:31;;;;;;;5.07;2.93;;;;;;;3.91;100.00;98347.38;5072345;28;20229;-82
2023/01/10 04:40:59;;;;;;;5.57;3.00;;;;;;;3.91;100.00;98357.84;5071515;28;20245;-81
2023/01/10 04:43:25;;;;;;;7.13;3.43;;;;;;;3.89;100.00;98364.91;5072341;28;20679;-83
2023/01/10 04:45:52;;;;;;;6.83;3.50;;;;;;;3.92;100.00;98377.00;5072395;28;20210;-81
2023/01/10 04:48:18;;;;;;;8.47;3.53;;;;;;;3.94;100.00;98383.88;5072356;28;20225;-82
2023/01/10 04:50:49;;;;;;;4.43;3.20;;;;;;;3.93;100.00;98386.53;5071065;28;20238;-80
2023/01/10 04:53:16;;;;;;;5.37;3.20;;;;;;;3.99;100.00;98391.53;5072168;28;20205;-79
2023/01/10 04:55:42;;;;;;;9.63;3.40;;;;;;;4.00;100.00;98399.34;5072042;28;20219;-79
2023/01/10 04:58:10;;;;;;;9.53;3.87;;;;;;;3.97;100.00;98398.59;5072039;28;20211;-80
2023/01/10 05:00:37;;;;;;;11.43;3.20;;;;;;;3.97;100.00;98407.28;5071327;28;20205;-80
2023/01/10 05:03:04;;;;;;;7.90;3.23;;;;;;;3.95;100.00;98410.84;5072439;28;20723;-81
2023/01/10 05:05:31;;;;;;;6.47;2.90;;;;;;;3.99;100.00;98412.47;5072122;28;20914;-80
2023/01/10 05:07:57;;;;;;;6.63;2.70;;;;;;;4.04;100.00;98421.81;5072027;28;20608;-80
2023/01/10 05:10:24;;;;;;;6.20;2.80;;;;;;;4.09;100.00;98425.13;5071048;28;20241;-81
2023/01/10 05:12:50;;;;;;;7.63;3.13;;;;;;;4.15;100.00;98427.47;5072159;28;20660;-81
2023/01/10 05:15:19;;;;;;;8.30;2.80;;;;;;;4.21;100.00;98429.88;5071982;28;20433;-81
2023/01/10 05:17:46;;;;;;;7.80;3.20;;;;;;;4.25;100.00;98431.47;5072010;28;20208;-81
2023/01/10 05:20:13;;;;;;;9.93;2.83;;;;;;;4.27;100.00;98434.84;5070985;28;20237;-81
2023/01/10 05:22:39;;;;;;;9.13;3.00;;;;;;;4.30;100.00;98445.22;5071597;28;20213;-81
2023/01/10 05:25:06;;;;;;;7.77;3.00;;;;;;;4.33;100.00;98445.06;5071669;28;20210;-80
2023/01/10 05:27:33;;;;;;;8.67;2.93;;;;;;;4.38;100.00;98448.38;5071571;28;20221;-80
2023/01/10 05:29:59;;;;;;;7.30;2.80;;;;;;;4.43;100.00;98450.78;5070828;28;20244;-81
2023/01/10 05:32:29;;;;;;;5.57;2.73;;;;;;;4.46;100.00;98448.91;5071717;28;20211;-80
2023/01/10 05:34:55;;;;;;;6.50;2.80;;;;;;;4.50;100.00;98447.88;5071581;28;20207;-81
2023/01/10 05:37:22;;;;;;;8.77;2.97;;;;;;;4.52;100.00;98455.69;5071451;28;20217;-82
2023/01/10 05:39:48;;;;;;;6.67;2.27;;;;;;;4.54;100.00;98461.69;5070636;28;20231;-81
2023/01/10 05:42:15;;;;;;;6.73;3.00;;;;;;;4.55;100.00;98460.78;5071344;28;20588;-80
2023/01/10 05:44:41;;;;;;;6.67;2.90;;;;;;;4.60;100.00;98458.84;5071677;28;20210;-80
2023/01/10 05:47:08;;;;;;;9.77;3.00;;;;;;;4.58;100.00;98465.91;5071661;28;20213;-81
2023/01/10 05:49:37;;;;;;;10.90;3.23;;;;;;;4.57;100.00;98467.66;5070625;28;20237;-81
2023/01/10 05:52:03;;;;;;;6.70;3.00;;;;;;;4.56;100.00;98479.03;5071773;28;20214;-80
2023/01/10 05:54:30;;;;;;;9.57;2.50;;;;;;;4.58;100.00;98479.81;5072383;28;20327;-80
2023/01/10 05:56:57;;;;;;;6.60;2.43;;;;;;;4.59;100.00;98470.22;5072249;28;20214;-80
2023/01/10 05:59:23;;;;;;;9.17;2.80;;;;;;;4.60;100.00;98475.41;5070807;28;20232;-80
2023/01/10 06:01:50;;;;;;;7.00;2.70;;;;;;;4.61;100.00;98476.25;5071394;28;20213;-80
2023/01/10 06:04:16;;;;;;;6.37;2.67;;;;;;;4.64;100.00;98476.13;5071347;28;20216;-82
2023/01/10 06:06:44;;;;;;;7.73;2.47;;;;;;;4.61;100.00;98477.09;5071504;28;20221;-81
2023/01/10 06:09:10;;;;;;;8.03;2.30;;;;;;;4.60;100.00;98485.88;5070455;28;20238;-81
2023/01/10 06:11:37;;;;;;;7.77;2.40;;;;;;;4.60;100.00;98480.63;5071083;28;20217;-81
2023/01/10 06:14:06;;;;;;;8.93;2.90;;;;;;;4.62;100.00;98481.41;5071094;28;20263;-81
2023/01/10 06:16:32;;;;;;;10.97;2.40;;;;;;;4.63;100.00;98490.97;5071112;28;20209;-80
2023/01/10 06:18:59;;;;;;;10.70;2.37;;;;;;;4.61;100.00;98492.81;5070056;28;20260;-81
2023/01/10 06:21:25;;;;;;;7.23;2.10;;;;;;;4.61;100.00;98491.94;5071429;28;20211;-80
2023/01/10 06:23:53;;;;;;;6.90;1.97;;;;;;;4.62;100.00;98499.75;5071150;28;20233;-80
2023/01/10 06:26:20;;;;;;;9.40;2.37;;;;;;;4.63;100.00;98492.72;5071124;28;20327;-81
2023/01/10 06:28:46;;;;;;;3.77;1.90;;;;;;;4.58;100.00;98502.56;5070461;28;20659;-80
2023/01/10 06:31:14;;;;;;;3.93;1.90;;;;;;;4.57;100.00;98506.06;5070784;28;20252;-80
2023/01/10 06:33:42;;;;;;;5.40;2.40;;;;;;;4.56;100.00;98504.34;5070884;28;20206;-79
2023/01/10 06:36:09;;;;;;;6.23;2.07;;;;;;;4.61;100.00;98513.75;5071078;28;20269;-80
2023/01/10 06:38:36;;;;;;;11.57;2.10;;;;;;;4.60;100.00;98516.41;5070776;28;20234;-81
2023/01/10 06:41:11;;;;;;;6.83;2.37;;;;;;;4.62;100.00;98518.06;5070210;28;20210;-81
2023/01/10 06:43:38;;;;;;;7.00;2.30;;;;;;;4.66;100.00;98522.28;5070901;28;20210;-79
2023/01/10 06:46:05;;;;;;;7.87;2.67;;;;;;;4.61;100.00;98511.13;5070720;28;20222;-82
2023/01/10 06:48:31;;;;;;;7.50;2.27;;;;;;;4.56;100.00;98520.94;5070822;28;20231;-81
2023/01/10 06:50:58;;;;;;;9.73;2.70;;;;;;;4.51;100.00;98522.88;5070067;28;20257;-81
2023/01/10 06:53:24;;;;;;;9.93;1.90;;;;;;;4.49;100.00;98534.31;5073941;28;20220;-80
2023/01/10 06:55:51;;;;;;;8.93;2.50;;;;;;;4.43;100.00;98530.16;5074581;28;20232;-80
2023/01/10 06:58:19;;;;;;;8.53;2.07;;;;;;;4.44;100.00;98547.56;5074356;28;20224;-81
2023/01/10 07:00:45;;;;;;;5.80;1.83;;;;;;;4.47;100.00;98551.84;5073771;28;20534;-81
2023/01/10 07:03:11;;;;;;;6.17;1.97;;;;;;;4.55;100.00;98560.25;5074702;28;20565;-81
2023/01/10 07:05:38;;;;;;;9.23;2.37;;;;;;;4.58;100.00;98566.22;5074651;28;20210;-81
2023/01/10 07:08:05;;;;;;;5.63;2.20;;;;;;;4.63;100.00;98573.88;5074283;28;20210;-81
2023/01/10 07:10:31;;;;;;;4.07;1.73;;;;;;;4.66;100.00;98563.31;5073496;28;20333;-82
2023/01/10 07:12:58;;;;;;;6.73;2.00;;;;;;;4.68;100.00;98578.03;5074192;28;20205;-81
2023/01/10 07:15:26;;;;;;;6.47;1.90;;;;;;;4.73;100.00;98589.19;5074092;28;20219;-80
2023/01/10 07:17:53;;;;;;;7.13;1.87;;;;;;;4.74;100.00;98587.41;5074372;28;20316;-79
2023/01/10 07:20:19;;;;;;;8.57;2.03;;;;;;;4.74;100.00;98603.97;5073153;28;20218;-79
2023/01/10 07:22:53;;;;;;;4.90;2.07;;;;;;;4.76;100.00;98607.38;5073923;28;20218;-78
2023/01/10 07:25:20;;;;;;;5.60;2.50;;;;;;;4.82;100.00;98622.84;5073925;28;20693;-77
2023/01/10 07:27:46;;;;;;;9.73;2.30;;;;;;;4.81;100.00;98615.91;5073894;28;20220;-78
2023/01/10 07:30:13;;;;;;;5.90;2.13;;;;;;;4.84;100.00;98618.41;5073133;28;20244;-79
2023/01/10 07:32:41;;;;;;;11.27;2.20;;;;;;;4.85;100.00;98616.66;5073896;28;20252;-77
2023/01/10 07:35:08;;;;;;;8.23;2.10;;;;;;;4.85;100.00;98627.13;5074202;28;20233;-77
2023/01/10 07:37:34;;;;;;;6.37;2.27;;;;;;;4.84;100.00;98610.53;5073699;28;20211;-77
2023/01/10 07:40:01;;;;;;;7.50;2.03;;;;;;;4.88;100.00;98608.69;5072992;28;20226;-77
2023/01/10 07:42:27;;;;;;;7.37;2.13;;;;;;;4.87;100.00;98620.06;5074072;28;20227;-76
2023/01/10 07:44:54;;;;;;;8.40;2.60;;;;;;;4.88;100.00;98633.09;5073786;28;20211;-78
2023/01/10 07:47:20;;;;;;;4.90;2.20;;;;;;;4.88;100.00;98638.34;5073629;28;20222;-76
2023/01/10 07:49:48;;;;;;;8.20;2.73;;;;;;;4.89;100.00;98649.69;5072595;28;20611;-76
2023/01/10 07:52:15;;;;;;;6.70;2.30;;;;;;;4.93;100.00;98646.88;5073593;28;20218;-78
2023/01/10 07:54:41;;;;;;;5.57;2.40;;;;;;;4.96;100.00;98654.59;5073402;28;20215;-76
2023/01/10 07:57:08;;;;;;;6.70;2.30;;;;;;;4.94;100.00;98659.06;5073385;28;20673;-78
2023/01/10 07:59:34;;;;;;;9.70;2.50;;;;;;;4.96;100.00;98665.06;5072839;28;20254;-77
2023/01/10 08:02:00;;;;;;;7.30;2.33;;;;;;;4.94;100.00;98663.47;5073668;28;20215;-76
2023/01/10 08:04:27;;;;;;;11.47;2.17;;;;;;;5.02;100.00;98677.94;5072454;28;20221;-76
2023/01/10 08:06:55;;;;;;;7.38;2.00;;;;;;;5.06;100.00;98674.31;5072631;28;20432;-76
2023/01/10 08:09:22;;;;;;;10.60;2.17;;;;;;;5.04;100.00;98670.91;5070368;28;20227;-76
2023/01/10 08:11:48;;;;;;;4.40;1.90;;;;;;;5.06;100.00;98663.81;5072300;28;20234;-76
2023/01/10 08:14:14;;;;;;;6.23;1.97;;;;;;;5.11;100.00;98667.13;5073151;28;20240;-76
2023/01/10 08:16:41;;;;;;;4.77;2.03;;;;;;;5.17;100.00;98671.25;5073200;28;20214;-76
2023/01/10 08:19:08;;;;;;;5.97;1.90;;;;;;;5.13;100.00;98669.69;5071928;28;20661;-77
2023/01/10 08:21:34;;;;;;;6.33;2.00;;;;;;;5.19;100.00;98670.28;5072813;28;20301;-76
2023/01/10 08:24:02;;;;;;;9.67;2.40;;;;;;;5.16;100.00;98680.91;5072811;28;20216;-77
2023/01/10 08:26:28;;;;;;;3.97;1.90;;;;;;;5.22;100.00;98680.66;5072852;28;20208;-76
2023/01/10 08:28:55;;;;;;;6.17;3.10;;;;;;;5.27;100.00;98688.34;5071810;28;20240;-76
2023/01/10 08:31:21;;;;;;;6.43;2.27;;;;;;;5.27;100.00;98694.44;5072760;28;20230;-77
2023/01/10 08:33:48;;;;;;;4.00;2.40;;;;;;;5.26;100.00;98707.59;5072642;28;20213;-76
2023/01/10 08:36:16;;;;;;;6.80;2.67;;;;;;;5.35;100.00;98717.69;5072459;28;20210;-76
2023/01/10 08:38:42;;;;;;;9.17;2.63;;;;;;;5.37;100.00;98716.72;5072428;28;20228;-77
2023/01/10 08:41:10;;;;;;;8.10;2.53;;;;;;;5.37;100.00;98721.13;5072153;28;20294;-77
2023/01/10 08:43:37;;;;;;;6.60;2.13;;;;;;;5.36;100.00;98720.28;5072345;28;20219;-77
2023/01/10 08:46:03;;;;;;;8.77;2.40;;;;;;;5.42;100.00;98714.78;5072307;28;20209;-75
2023/01/10 08:48:30;;;;;;;5.80;2.50;;;;;;;5.46;100.00;98719.00;5072191;28;20238;-75
2023/01/10 08:50:56;;;;;;;7.80;2.13;;;;;;;5.49;100.00;98716.25;5071673;28;20435;-76
2023/01/10 08:53:23;;;;;;;6.93;2.50;;;;;;;5.55;100.00;98708.13;5072118;28;20699;-76
2023/01/10 08:55:49;;;;;;;4.03;1.97;;;;;;;5.60;100.00;98703.56;5072372;28;20331;-75
2023/01/10 08:58:17;;;;;;;7.37;2.37;;;;;;;5.64;100.00;98710.41;5071990;28;20744;-76
2023/01/10 09:00:44;;;;;;;8.73;2.70;;;;;;;5.65;100.00;98714.72;5071455;28;20210;-77
2023/01/10 09:03:11;;;;;;;8.23;2.30;;;;;;;5.66;100.00;98716.44;5071977;28;20213;-76
2023/01/10 09:05:37;;;;;;;7.83;2.63;;;;;;;5.72;100.00;98734.53;5070326;28;20700;-76
2023/01/10 09:08:04;;;;;;;9.73;2.27;;;;;;;5.81;100.00;98728.94;5068928;28;20222;-77
2023/01/10 09:10:31;;;;;;;7.60;2.87;;;;;;;5.75;100.00;98729.16;5070223;28;20284;-76
2023/01/10 09:13:00;;;;;;;6.93;2.77;;;;;;;5.80;100.00;98742.16;5071017;28;20211;-76
2023/01/10 09:15:30;;;;;;;5.33;2.10;;;;;;;5.85;100.00;98741.03;5062939;28;20200;-76
2023/01/10 09:17:59;;;;;;;4.47;1.93;;;;;;;5.83;100.00;98742.88;5067819;28;20231;-77
2023/01/10 09:20:27;;;;;;;5.23;2.20;;;;;;;5.85;100.00;98754.16;5069930;28;20845;-76
2023/01/10 09:22:55;;;;;;;6.67;2.50;;;;;;;5.86;100.00;98750.59;5070393;28;20212;-76
2023/01/10 09:25:22;;;;;;;8.80;2.33;;;;;;;5.91;100.00;98746.03;5070730;28;20212;-76
2023/01/10 09:27:56;;;;;;;4.77;1.90;;;;;;;5.89;100.00;98747.88;5071539;28;20212;-76
2023/01/10 09:30:23;;;;;;;6.00;2.20;;;;;;;5.96;100.00;98743.22;5070689;28;20578;-77
2023/01/10 09:32:51;;;;;;;8.63;2.37;;;;;;;5.92;100.00;98736.41;5071534;28;20218;-77
2023/01/10 09:35:18;;;;;;;3.90;1.90;;;;;;;5.95;100.00;98737.13;5071613;28;20217;-77
2023/01/10 09:37:44;;;;;;;8.83;2.03;;;;;;;5.99;100.00;98743.09;5071683;28;20210;-77
2023/01/10 09:40:15;;;;;;;4.90;2.30;;;;;;;5.96;100.00;98761.56;5070549;28;20242;-77
2023/01/10 09:42:55;;;;;;;5.93;2.10;;;;;;;6.00;100.00;98756.16;5071361;28;20211;-78
2023/01/10 09:45:35;;;;;;;4.97;2.60;;;;;;;6.05;100.00;98769.91;5071342;28;20207;-77
2023/01/10 09:48:06;;;;;;;6.83;2.07;;;;;;;6.05;100.00;98767.28;5071531;28;20210;-76
2023/01/10 09:50:44;;;;;;;5.33;1.80;;;;;;;6.04;99.66;98768.22;5070437;28;20318;-77
2023/01/10 09:53:13;;;;;;;7.53;2.15;;;;;;;6.11;100.00;98780.16;5071032;28;20808;-76
2023/01/10 09:55:42;;;;;;;5.27;2.00;;;;;;;6.10;100.00;98777.63;5071210;28;20219;-76
2023/01/10 09:58:15;;;;;;;8.53;3.10;;;;;;;6.19;100.00;98783.34;5071148;28;20226;-77
2023/01/10 10:00:44;;;;;;;6.53;1.80;;;;;;;6.19;99.28;98777.22;5070669;28;20258;-77
2023/01/10 10:03:22;;;;;;;3.27;1.30;;;;;;;6.17;99.10;98774.66;5071027;28;20204;-77
2023/01/10 10:05:49;;;;;;;3.73;1.63;;;;;;;6.21;99.61;98773.63;5071172;28;20210;-77
2023/01/10 10:08:18;;;;;;;11.40;2.70;;;;;;;6.28;99.44;98780.31;5071117;28;20280;-78
2023/01/10 10:10:55;;;;;;;3.63;1.60;;;;;;;6.37;99.91;98774.69;5070358;28;20239;-76
2023/01/10 10:13:27;;;;;;;3.67;1.50;;;;;;;6.33;99.60;98765.25;5071079;28;20289;-76
2023/01/10 10:16:04;;;;;;;6.17;1.83;;;;;;;6.27;99.87;98770.75;5071222;28;20272;-77
2023/01/10 10:18:42;;;;;;;6.20;2.20;;;;;;;6.34;100.00;98774.81;5085830;22;20239;-87
2023/01/10 10:21:17;;;;;;;7.17;1.90;;;;;;;6.36;100.00;98765.09;5049923;28;20219;-77
2023/01/10 10:23:57;;;;;;;5.70;2.37;;;;;;;6.39;100.00;98771.97;5051119;28;20204;-79
2023/01/10 10:26:32;;;;;;;4.60;1.97;;;;;;;6.37;100.00;98777.31;5050959;28;20208;-79
2023/01/10 10:29:28;;;;;;;4.53;1.87;;;;;;;6.32;100.00;98774.03;5054201;28;20231;-79
2023/01/10 10:32:10;;;;;;;7.33;1.90;;;;;;;6.41;100.00;98781.50;5054791;28;20230;-78
2023/01/10 10:34:43;;;;;;;6.63;1.80;;;;;;;6.30;99.47;98773.22;5054907;28;20235;-79
2023/01/10 10:37:15;;;;;;;4.97;1.60;;;;;;;6.37;98.18;98761.56;5054730;28;20208;-79
2023/01/10 10:39:52;;;;;;;5.50;1.67;;;;;;;6.42;97.72;98764.84;5053884;28;20706;-79
2023/01/10 10:42:19;;;;;;;6.43;1.80;;;;;;;6.48;97.74;98764.56;5054817;28;20310;-79
2023/01/10 10:44:52;;;;;;;4.60;1.97;;;;;;;6.52;97.85;98760.91;5054569;28;20208;-80
2023/01/10 10:47:21;;;;;;;6.37;1.70;;;;;;;6.63;98.10;98747.28;5054424;28;20208;-78
2023/01/10 10:49:56;;;;;;;5.03;1.60;;;;;;;6.63;97.75;98749.94;5053720;28;20235;-94
2023/01/10 10:52:26;;;;;;;3.70;2.33;;;;;;;6.75;97.91;98752.88;5054807;28;20238;-87
2023/01/10 10:54:53;;;;;;;5.43;2.10;;;;;;;6.87;97.84;98746.22;5054804;28;20211;-78
2023/01/10 10:57:23;;;;;;;5.67;2.00;;;;;;;6.89;98.27;98755.75;5054618;28;20208;-87
2023/01/10 10:59:50;;;;;;;6.37;2.10;;;;;;;6.99;98.29;98757.03;5053629;28;20228;-82
2023/01/10 11:02:23;;;;;;;6.87;1.50;;;;;;;6.93;93.79;98732.81;5054191;28;20210;-83
2023/01/10 11:04:54;;;;;;;4.27;1.50;;;;;;;6.90;92.95;98781.09;5054234;28;20204;-83
2023/01/10 11:07:22;;;;;;;4.17;1.43;;;;;;;6.77;91.66;98782.56;5054310;28;20218;-81
2023/01/10 11:09:53;;;;;;;4.50;1.40;;;;;;;6.84;92.59;98791.88;5053513;28;20583;-81
2023/01/10 11:12:24;;;;;;;4.23;1.57;;;;;;;6.81;90.84;98794.66;5053141;28;20230;-80
2023/01/10 11:14:52;;;;;;;5.63;1.43;;;;;;;6.73;90.09;98788.84;5051969;28;20207;-80
2023/01/10 11:17:21;;;;;;;4.47;1.50;;;;;;;6.76;92.37;98803.63;5053356;28;20211;-81
2023/01/10 11:20:00;;;;;;;4.37;1.13;;;;;;;6.88;91.24;98793.44;5052283;28;20244;-84
2023/01/10 11:22:29;;;;;;;8.00;1.70;;;;;;;7.10;90.57;98791.59;5053990;28;20207;-84
2023/01/10 11:24:58;;;;;;;3.70;1.60;;;;;;;7.18;92.01;98793.84;5054030;28;20217;-82
2023/01/10 11:27:28;;;;;;;4.87;1.37;;;;;;;7.23;91.61;98795.38;5053712;28;20204;-84
2023/01/10 11:29:57;;;;;;;3.90;1.43;;;;;;;7.24;92.57;98803.16;5053324;28;20227;-84
2023/01/10 11:32:31;;;;;;;5.83;1.60;;;;;;;7.29;91.23;98805.59;5053852;28;20239;-85
2023/01/10 11:35:01;;;;;;;5.17;1.73;;;;;;;7.33;91.62;98801.88;5054083;28;20230;-86
2023/01/10 11:37:31;;;;;;;3.67;1.60;;;;;;;7.26;88.70;98794.38;5053516;28;20227;-84
2023/01/10 11:40:22;;;;;;;2.47;1.10;;;;;;;7.38;87.41;98797.28;5052760;28;20232;-84
2023/01/10 11:42:49;;;;;;;3.77;1.40;;;;;;;7.50;89.65;98801.97;5053545;28;20670;-84
2023/01/10 11:45:30;;;;;;;3.60;1.27;;;;;;;7.50;89.37;98801.97;5053874;28;20226;-85
2023/01/10 11:48:00;;;;;;;3.87;1.50;;;;;;;7.47;89.30;98797.72;5053513;28;20598;-86
2023/01/10 11:50:30;;;;;;;5.27;1.40;;;;;;;7.34;87.18;98796.56;5053193;28;20232;-82